Time;durP1;ratioP1;P1;durP2;ratioP2;P2;SDS_P1;SDS_P2;PMS_P1;PMS_P2;Temp;Humidity;BMP_temperature;BMP_pressure;BME280_temperature;BME280_humidity;BME280_pressure;Samples;Min_cycle;Max_cycle;Signal;HPM_P1;HPM_P2
2021/01/19 00:02:22;;;;;;;0.30;0.30;;;;;;;-15.74;81.66;101084.16;1732560;82;21186;-49
2021/01/19 00:04:49;;;;;;;0.10;0.10;;;;;;;-15.71;81.62;101085.27;1732637;82;21133;-48
2021/01/19 00:07:16;;;;;;;0.10;0.10;;;;;;;-15.67;81.55;101086.74;1732541;82;21129;-49
2021/01/19 00:09:44;;;;;;;0.30;0.30;;;;;;;-15.65;81.47;101087.49;1732708;82;21118;-49
2021/01/19 00:12:11;;;;;;;0.40;0.40;;;;;;;-15.61;81.42;101088.97;1732615;82;21161;-48
2021/01/19 00:14:39;;;;;;;0.07;0.07;;;;;;;-15.58;81.33;101090.55;1732679;82;21151;-49
2021/01/19 00:17:06;;;;;;;0.10;0.10;;;;;;;-15.57;81.28;101090.11;1732680;82;21117;-49
2021/01/19 00:19:33;;;;;;;0.10;0.10;;;;;;;-15.55;81.27;101097.38;1732598;82;21414;-48
2021/01/19 00:22:01;;;;;;;0.10;0.10;;;;;;;-15.53;81.25;101095.52;1732511;82;21138;-49
2021/01/19 00:24:28;;;;;;;3.10;2.13;;;;;;;-15.51;81.27;101088.41;1732580;82;21138;-49
2021/01/19 00:26:56;;;;;;;0.00;0.00;;;;;;;-15.49;81.24;101087.37;1732699;82;21126;-49
2021/01/19 00:29:24;;;;;;;1.13;0.93;;;;;;;-15.45;81.17;101090.63;1732761;82;21936;-49
2021/01/19 00:31:51;;;;;;;0.67;0.30;;;;;;;-15.43;81.18;101089.62;1732724;82;21118;-49
2021/01/19 00:34:20;;;;;;;1.13;1.13;;;;;;;-15.41;81.14;101089.03;1732631;82;21142;-49
2021/01/19 00:36:50;;;;;;;0.30;0.30;;;;;;;-15.39;81.09;101086.32;1732605;82;21175;-49
2021/01/19 00:39:17;;;;;;;0.10;0.10;;;;;;;-15.36;81.04;101083.50;1732611;82;21177;-49
2021/01/19 00:41:44;;;;;;;1.70;1.60;;;;;;;-15.35;81.00;101086.95;1732643;82;21122;-49
2021/01/19 00:44:12;;;;;;;0.10;0.10;;;;;;;-15.35;80.94;101091.75;1732676;82;21194;-49
2021/01/19 00:46:39;;;;;;;1.07;0.97;;;;;;;-15.34;80.94;101089.48;1732728;82;21457;-49
2021/01/19 00:49:07;;;;;;;1.50;1.13;;;;;;;-15.33;80.92;101096.41;1732594;82;21539;-49
2021/01/19 00:51:37;;;;;;;0.10;0.10;;;;;;;-15.31;80.95;101100.25;1732493;81;21150;-49
2021/01/19 00:54:05;;;;;;;1.70;1.43;;;;;;;-15.30;80.96;101090.98;1732743;82;21461;-49
2021/01/19 00:56:40;;;;;;;0.00;0.00;;;;;;;-15.27;80.94;101092.09;1732711;82;21816;-49
2021/01/19 00:59:09;;;;;;;0.10;0.10;;;;;;;-15.24;80.90;101089.28;1732659;82;21146;-49
2021/01/19 01:01:46;;;;;;;0.10;0.10;;;;;;;-15.23;80.87;101081.80;1732657;82;21169;-49
2021/01/19 01:04:14;;;;;;;0.83;0.83;;;;;;;-15.22;80.90;101078.70;1732675;82;21178;-49
2021/01/19 01:06:41;;;;;;;0.10;0.10;;;;;;;-15.20;80.85;101085.53;1732922;82;21616;-48
2021/01/19 01:09:08;;;;;;;0.10;0.10;;;;;;;-15.19;80.84;101079.81;1732656;82;21118;-48
2021/01/19 01:11:40;;;;;;;0.10;0.10;;;;;;;-15.18;80.77;101079.73;1732538;82;21173;-49
2021/01/19 01:14:08;;;;;;;;;;;;;;;-15.15;80.73;101077.37;1735217;82;21209;-48
2021/01/19 01:16:36;;;;;;;0.20;0.20;;;;;;;-15.17;80.69;101080.08;1732623;82;20296;-49
2021/01/19 01:19:04;;;;;;;0.10;0.10;;;;;;;-15.16;80.73;101080.92;1732624;82;21110;-49
2021/01/19 01:21:37;;;;;;;0.10;0.10;;;;;;;-15.16;80.75;101079.12;1732587;82;21125;-48
2021/01/19 01:24:07;;;;;;;0.10;0.10;;;;;;;-15.14;80.75;101083.45;1732663;82;21149;-50
2021/01/19 01:26:35;;;;;;;4.53;1.30;;;;;;;-15.14;80.75;101081.66;1732626;82;21154;-49
2021/01/19 01:29:05;;;;;;;0.10;0.10;;;;;;;-15.13;80.77;101085.98;1732544;82;21154;-49
2021/01/19 01:31:35;;;;;;;0.10;0.10;;;;;;;-15.10;80.74;101084.95;1732732;82;21173;-48
2021/01/19 01:34:03;;;;;;;0.30;0.30;;;;;;;-15.08;80.71;101083.05;1732594;82;21433;-48
2021/01/19 01:36:40;;;;;;;0.07;0.07;;;;;;;-15.07;80.74;101092.13;1732574;82;21190;-49
2021/01/19 01:39:07;;;;;;;0.17;0.17;;;;;;;-15.06;80.75;101090.34;1732654;82;21153;-49
2021/01/19 01:41:35;;;;;;;0.30;0.30;;;;;;;-15.02;80.69;101091.84;1732708;82;21524;-49
2021/01/19 01:44:02;;;;;;;0.10;0.10;;;;;;;-15.01;80.60;101089.58;1732788;82;21094;-49
2021/01/19 01:46:37;;;;;;;0.20;0.20;;;;;;;-14.99;80.55;101086.39;1732726;82;21610;-48
2021/01/19 01:49:05;;;;;;;0.37;0.37;;;;;;;-14.98;80.54;101089.41;1732620;82;21154;-49
2021/01/19 01:51:33;;;;;;;0.10;0.10;;;;;;;-14.95;80.48;101088.72;1732538;82;21126;-48
2021/01/19 01:54:00;;;;;;;1.50;1.40;;;;;;;-14.93;80.42;101083.83;1732466;82;21153;-49
2021/01/19 01:56:28;;;;;;;0.20;0.20;;;;;;;-14.91;80.32;101088.04;1732568;82;21114;-49
2021/01/19 01:58:55;;;;;;;0.23;0.23;;;;;;;-14.90;80.35;101088.42;1732609;82;21149;-49
2021/01/19 02:01:24;;;;;;;0.37;0.37;;;;;;;-14.91;80.32;101087.20;1732495;81;21145;-48
2021/01/19 02:03:52;;;;;;;0.53;0.53;;;;;;;-14.91;80.28;101085.89;1732661;81;21130;-48
2021/01/19 02:06:20;;;;;;;0.10;0.10;;;;;;;-14.92;80.24;101069.80;1702045;82;21319;-49
2021/01/19 02:09:00;;;;;;;0.10;0.10;;;;;;;-14.92;80.23;101069.32;1732561;82;21193;-49
2021/01/19 02:11:48;;;;;;;0.20;0.20;;;;;;;-14.94;80.22;101067.26;1703533;82;21166;-49
2021/01/19 02:14:36;;;;;;;0.30;0.30;;;;;;;-14.96;80.25;101059.95;1732550;81;21166;-49
2021/01/19 02:17:36;;;;;;;0.10;0.10;;;;;;;-14.95;80.26;101068.22;1732781;82;21169;-48
2021/01/19 02:20:27;;;;;;;0.10;0.10;;;;;;;-14.93;80.28;101074.20;1701592;82;21130;-49
2021/01/19 02:23:24;;;;;;;0.30;0.30;;;;;;;-14.93;80.30;101062.84;1732606;82;21118;-49
2021/01/19 02:26:12;;;;;;;8.83;1.03;;;;;;;-14.91;80.28;101065.73;1732572;81;21154;-49
2021/01/19 02:28:51;;;;;;;0.10;0.10;;;;;;;-14.90;80.28;101061.36;1731623;82;21169;-49
2021/01/19 02:32:00;;;;;;;0.10;0.10;;;;;;;-14.90;80.30;101060.89;1703766;82;21623;-49
2021/01/19 02:34:38;;;;;;;0.60;0.60;;;;;;;-14.89;80.26;101064.34;1732567;81;21137;-48
2021/01/19 02:37:09;;;;;;;0.10;0.10;;;;;;;-14.88;80.10;101059.01;1732625;82;21528;-48
2021/01/19 02:40:02;;;;;;;0.40;0.40;;;;;;;-14.87;80.01;101059.36;1702330;82;21102;-49
2021/01/19 02:42:43;;;;;;;0.85;0.82;;;;;;;-14.87;79.92;101059.84;1732565;82;27589;-49
2021/01/19 02:45:10;;;;;;;0.10;0.10;;;;;;;-14.90;79.87;101053.02;1730053;81;21134;-49
2021/01/19 02:47:39;;;;;;;1.90;1.23;;;;;;;-14.89;79.83;101053.85;1732266;82;38007;-49
2021/01/19 02:50:09;;;;;;;1.37;1.37;;;;;;;-14.91;79.65;101051.79;1732659;81;21145;-49
2021/01/19 02:52:37;;;;;;;0.77;0.73;;;;;;;-14.92;79.47;101054.89;1732608;81;21106;-49
2021/01/19 02:55:06;;;;;;;1.60;1.47;;;;;;;-14.94;79.47;101052.84;1732704;81;21123;-48
2021/01/19 02:58:27;;;;;;;0.10;0.10;;;;;;;-14.97;79.46;101051.73;1732592;82;21146;-48
2021/01/19 03:01:08;;;;;;;0.10;0.10;;;;;;;-14.99;79.29;101047.05;1732493;81;21194;-49
2021/01/19 03:03:38;;;;;;;6.03;1.40;;;;;;;-15.03;79.20;101042.49;1732463;82;21164;-48
2021/01/19 03:06:12;;;;;;;0.20;0.20;;;;;;;-15.07;79.07;101040.16;1732540;81;21135;-49
2021/01/19 03:08:43;;;;;;;0.20;0.20;;;;;;;-15.10;79.01;101050.86;1732583;82;21165;-48
2021/01/19 03:11:15;;;;;;;0.27;0.27;;;;;;;-15.18;78.95;101046.95;1732447;81;21406;-49
2021/01/19 03:13:48;;;;;;;0.00;0.00;;;;;;;-15.23;78.93;101042.48;1732686;82;21122;-49
2021/01/19 03:16:18;;;;;;;0.10;0.10;;;;;;;-15.28;78.92;101038.45;1732587;82;21134;-49
2021/01/19 03:18:48;;;;;;;1.43;1.33;;;;;;;-15.34;78.90;101046.24;1732560;82;21560;-49
2021/01/19 03:21:15;;;;;;;0.10;0.10;;;;;;;-15.39;78.87;101040.45;1732646;82;21516;-49
2021/01/19 03:23:43;;;;;;;2.57;2.43;;;;;;;-15.41;78.83;101039.70;1732570;82;21125;-49
2021/01/19 03:26:10;;;;;;;0.10;0.10;;;;;;;-15.44;78.84;101039.91;1732483;81;21165;-48
2021/01/19 03:28:37;;;;;;;1.13;1.13;;;;;;;-15.49;78.87;101041.98;1732273;82;21189;-48
2021/01/19 03:31:06;;;;;;;0.33;0.33;;;;;;;-15.55;78.89;101044.98;1732301;81;21102;-49
2021/01/19 03:33:33;;;;;;;1.80;1.23;;;;;;;-15.58;78.93;101046.48;1732563;82;21118;-49
2021/01/19 03:36:00;;;;;;;0.83;0.83;;;;;;;-15.60;78.98;101050.50;1732566;81;21176;-48
2021/01/19 03:38:27;;;;;;;0.20;0.20;;;;;;;-15.64;79.01;101045.94;1732410;82;21002;-49
2021/01/19 03:40:55;;;;;;;0.10;0.10;;;;;;;-15.67;79.03;101042.20;1732502;81;21156;-49
2021/01/19 03:43:23;;;;;;;0.10;0.10;;;;;;;-15.68;79.02;101048.36;1732569;82;21126;-48
2021/01/19 03:45:50;;;;;;;0.10;0.10;;;;;;;-15.71;79.06;101047.29;1732658;81;21482;-48
2021/01/19 03:48:17;;;;;;;0.10;0.10;;;;;;;-15.72;79.10;101048.23;1732643;82;21150;-49
2021/01/19 03:50:45;;;;;;;0.30;0.30;;;;;;;-15.75;79.11;101048.41;1732806;81;21553;-49
2021/01/19 03:53:12;;;;;;;0.40;0.40;;;;;;;-15.76;79.13;101056.38;1732673;81;21178;-49
2021/01/19 03:55:40;;;;;;;0.10;0.10;;;;;;;-15.79;79.14;101050.03;1732644;81;21421;-49
2021/01/19 03:58:07;;;;;;;0.10;0.10;;;;;;;-15.79;79.19;101056.10;1732648;82;21193;-49
2021/01/19 04:00:35;;;;;;;0.00;0.00;;;;;;;-15.81;79.24;101055.34;1732664;81;21134;-49
2021/01/19 04:03:02;;;;;;;0.10;0.10;;;;;;;-15.80;79.27;101056.19;1732743;82;21189;-48
2021/01/19 04:05:29;;;;;;;0.10;0.10;;;;;;;-15.81;79.31;101051.42;1732837;81;21498;-49
2021/01/19 04:07:57;;;;;;;0.67;0.67;;;;;;;-15.84;79.32;101051.14;1732615;82;21138;-49
2021/01/19 04:10:25;;;;;;;0.10;0.10;;;;;;;-15.84;79.28;101056.38;1732626;81;21098;-49
2021/01/19 04:12:52;;;;;;;0.00;0.00;;;;;;;-15.87;79.25;101055.71;1732689;82;21213;-49
2021/01/19 04:15:19;;;;;;;0.10;0.10;;;;;;;-15.91;79.23;101056.38;1732656;81;21484;-48
2021/01/19 04:17:47;;;;;;;0.00;0.00;;;;;;;-15.91;79.20;101061.63;1732684;82;21170;-49
2021/01/19 04:20:14;;;;;;;0.10;0.10;;;;;;;-15.94;79.18;101069.67;1732690;81;21603;-49
2021/01/19 04:22:41;;;;;;;0.10;0.10;;;;;;;-15.96;79.21;101067.61;1732780;82;21153;-49
2021/01/19 04:25:09;;;;;;;0.23;0.23;;;;;;;-15.99;79.23;101069.59;1732700;81;21155;-48
2021/01/19 04:27:37;;;;;;;0.17;0.17;;;;;;;-16.00;79.24;101073.12;1732574;82;21154;-49
2021/01/19 04:30:07;;;;;;;0.10;0.10;;;;;;;-16.00;79.24;101066.58;1732609;81;21438;-48
2021/01/19 04:32:37;;;;;;;0.20;0.20;;;;;;;-16.01;79.25;101071.45;1732729;82;21134;-48
2021/01/19 04:35:06;;;;;;;0.40;0.40;;;;;;;-16.02;79.27;101073.20;1732745;81;21141;-48
2021/01/19 04:37:33;;;;;;;1.50;1.27;;;;;;;-16.01;79.24;101078.83;1732677;82;21169;-49
2021/01/19 04:40:04;;;;;;;9.67;1.43;;;;;;;-16.02;79.23;101081.53;1732725;81;21118;-49
2021/01/19 04:42:33;;;;;;;0.10;0.10;;;;;;;-16.04;79.15;101085.09;1732727;82;21457;-48
2021/01/19 04:45:09;;;;;;;0.10;0.10;;;;;;;-16.07;79.09;101099.69;1732712;81;21121;-49
2021/01/19 04:47:37;;;;;;;0.10;0.10;;;;;;;-16.07;79.10;101102.31;1732756;82;21457;-49
2021/01/19 04:50:08;;;;;;;0.20;0.20;;;;;;;-16.08;79.07;101097.16;1732558;81;21118;-49
2021/01/19 04:52:37;;;;;;;1.50;1.40;;;;;;;-16.10;79.06;101091.16;1730821;81;21581;-48
2021/01/19 04:55:10;;;;;;;0.10;0.10;;;;;;;-16.09;79.03;101098.94;1727157;81;21170;-49
2021/01/19 04:57:39;;;;;;;0.10;0.10;;;;;;;-16.09;79.03;101097.63;1727112;83;21112;-49
2021/01/19 05:00:13;;;;;;;0.33;0.33;;;;;;;-16.10;79.00;101095.92;1727172;81;21652;-49
2021/01/19 05:02:56;;;;;;;2.27;2.13;;;;;;;-16.11;79.02;101098.66;1727166;82;21185;-48
2021/01/19 05:05:41;;;;;;;0.10;0.10;;;;;;;-16.13;79.03;101098.73;1727168;81;21154;-49
2021/01/19 05:08:23;;;;;;;0.63;0.63;;;;;;;-16.13;79.03;101103.97;1727235;83;21145;-49
2021/01/19 05:11:00;;;;;;;0.15;0.15;;;;;;;-16.15;79.03;101104.52;1727385;81;21142;-49
2021/01/19 05:13:54;;;;;;;0.10;0.10;;;;;;;-16.16;79.06;101101.54;1727185;83;21181;-48
2021/01/19 05:16:30;;;;;;;1.00;0.73;;;;;;;-16.16;79.13;101118.55;1727272;83;21129;-49
2021/01/19 05:18:58;;;;;;;0.20;0.20;;;;;;;-16.15;79.08;101112.84;1727109;81;21557;-49
2021/01/19 05:21:25;;;;;;;1.50;0.93;;;;;;;-16.16;79.13;101109.39;1727206;82;21153;-49
2021/01/19 05:23:56;;;;;;;0.10;0.10;;;;;;;-16.11;79.10;101118.28;1727061;81;21146;-49
2021/01/19 05:26:24;;;;;;;0.20;0.20;;;;;;;-16.11;79.10;101119.13;1727395;82;21190;-49
2021/01/19 05:28:53;;;;;;;0.47;0.47;;;;;;;-16.08;79.09;101118.09;1727129;81;21221;-48
2021/01/19 05:31:29;;;;;;;3.47;3.20;;;;;;;-16.08;79.10;101111.08;1727206;82;21525;-49
2021/01/19 05:34:10;;;;;;;0.10;0.10;;;;;;;-16.03;79.09;101119.97;1727131;81;21154;-49
2021/01/19 05:36:49;;;;;;;0.10;0.10;;;;;;;-16.02;79.08;101118.19;1727355;83;21122;-49
2021/01/19 05:39:19;;;;;;;0.10;0.10;;;;;;;-16.01;79.03;101113.34;1727114;81;21437;-49
2021/01/19 05:41:53;;;;;;;0.10;0.10;;;;;;;-16.02;78.99;101114.26;1727152;82;21149;-49
2021/01/19 05:44:30;;;;;;;0.30;0.30;;;;;;;-16.01;79.03;101119.41;1727064;81;21130;-49
2021/01/19 05:47:04;;;;;;;0.23;0.23;;;;;;;-16.00;79.06;101116.33;1727323;83;21583;-49
2021/01/19 05:49:42;;;;;;;0.10;0.10;;;;;;;-15.99;79.02;101113.62;1727190;81;21553;-49
2021/01/19 05:52:12;;;;;;;0.10;0.10;;;;;;;-15.99;78.98;101121.48;1727261;81;21145;-49
2021/01/19 05:54:45;;;;;;;0.10;0.10;;;;;;;-15.98;78.96;101129.70;1732522;81;21149;-48
2021/01/19 05:57:22;;;;;;;0.10;0.10;;;;;;;-15.98;78.91;101126.25;1732636;82;21181;-48
2021/01/19 05:59:54;;;;;;;0.63;0.63;;;;;;;-16.00;78.88;101142.51;1732733;81;21149;-49
2021/01/19 06:02:25;;;;;;;0.10;0.10;;;;;;;-16.01;78.84;101147.38;1715629;82;21163;-48
2021/01/19 06:04:53;;;;;;;0.10;0.10;;;;;;;-16.04;78.83;101149.25;1740300;80;21119;-48
2021/01/19 06:07:25;;;;;;;0.10;0.10;;;;;;;-16.06;78.77;101147.66;1732347;82;21071;-49
2021/01/19 06:09:52;;;;;;;0.17;0.17;;;;;;;-16.09;78.76;101146.06;1720605;81;21183;-48
2021/01/19 06:12:20;;;;;;;0.10;0.10;;;;;;;-16.12;78.75;101153.23;1725446;82;21612;-49
2021/01/19 06:14:49;;;;;;;0.70;0.70;;;;;;;-16.16;78.75;101160.44;1733272;77;21433;-45
2021/01/19 06:17:22;;;;;;;4.40;2.00;;;;;;;-16.16;78.76;101160.44;1732323;82;21174;-48
2021/01/19 06:19:52;;;;;;;0.43;0.43;;;;;;;-16.17;78.77;101169.68;1731685;81;21457;-48
2021/01/19 06:22:21;;;;;;;0.17;0.17;;;;;;;-16.19;78.78;101163.25;1731244;82;21457;-48
2021/01/19 06:24:51;;;;;;;0.57;0.57;;;;;;;-16.20;78.82;101160.23;1733073;81;21000;-49
2021/01/19 06:27:26;;;;;;;0.77;0.77;;;;;;;-16.19;78.86;101166.30;1719727;81;21556;-49
2021/01/19 06:30:07;;;;;;;1.63;1.53;;;;;;;-16.16;78.91;101168.30;1723369;83;21131;-49
2021/01/19 06:32:47;;;;;;;0.10;0.10;;;;;;;-16.14;78.93;101160.36;1724087;82;21131;-49
2021/01/19 06:35:23;;;;;;;0.97;0.87;;;;;;;-16.10;78.93;101164.47;1724194;81;21139;-49
2021/01/19 06:37:52;;;;;;;1.40;1.33;;;;;;;-16.08;78.83;101162.13;1724046;82;21149;-48
2021/01/19 06:40:22;;;;;;;0.10;0.10;;;;;;;-16.07;78.79;101169.06;1723742;83;21134;-49
2021/01/19 06:43:00;;;;;;;0.10;0.10;;;;;;;-16.07;78.74;101169.06;1723945;83;21146;-48
2021/01/19 06:45:27;;;;;;;0.10;0.10;;;;;;;-16.05;78.64;101165.03;1721357;82;21160;-49
2021/01/19 06:47:56;;;;;;;0.10;0.10;;;;;;;-16.05;78.62;101169.80;1724078;83;20992;-49
2021/01/19 06:50:25;;;;;;;0.10;0.10;;;;;;;-16.07;78.57;101165.14;1713351;80;21144;-48
2021/01/19 06:53:32;;;;;;;0.10;0.10;;;;;;;-16.06;78.64;101168.13;1726650;82;21207;-49
2021/01/19 06:56:14;;;;;;;0.20;0.20;;;;;;;-16.04;78.60;101179.35;1731894;81;21189;-48
2021/01/19 06:58:54;;;;;;;0.20;0.20;;;;;;;-16.05;78.57;101182.88;1731953;82;21913;-49
2021/01/19 07:01:28;;;;;;;0.20;0.20;;;;;;;-16.01;78.62;101184.03;1731415;81;21118;-49
2021/01/19 07:04:06;;;;;;;0.17;0.17;;;;;;;-15.98;78.62;101182.54;1724738;82;21471;-48
2021/01/19 07:07:01;;;;;;;0.37;0.37;;;;;;;-15.92;78.69;101180.85;1731562;82;21129;-48
2021/01/19 07:10:03;;;;;;;0.10;0.10;;;;;;;-15.83;78.76;101182.94;1723577;81;21549;-49
2021/01/19 07:12:55;;;;;;;0.70;0.43;;;;;;;-15.75;78.69;101179.37;1732100;82;21146;-48
2021/01/19 07:15:57;;;;;;;0.13;0.13;;;;;;;-15.64;78.66;101174.78;1731163;81;21545;-48
2021/01/19 07:18:34;;;;;;;0.70;0.70;;;;;;;-15.56;78.40;101166.45;1721503;82;21169;-48
2021/01/19 07:21:07;;;;;;;0.07;0.07;;;;;;;-15.50;78.09;101177.86;1731649;81;21146;-48
2021/01/19 07:24:05;;;;;;;0.10;0.10;;;;;;;-15.46;78.15;101174.95;1732093;82;20979;-49
2021/01/19 07:26:35;;;;;;;0.77;0.77;;;;;;;-15.38;77.92;101174.48;1732085;82;21402;-48
2021/01/19 07:29:02;;;;;;;0.23;0.23;;;;;;;-15.28;77.78;101177.38;1700776;81;21172;-48
2021/01/19 07:31:30;;;;;;;0.07;0.07;;;;;;;-15.21;77.71;101182.62;1731999;82;21133;-48
2021/01/19 07:33:58;;;;;;;1.90;1.43;;;;;;;-15.13;77.57;101183.45;1700093;82;21095;-48
2021/01/19 07:36:26;;;;;;;2.00;1.13;;;;;;;-15.07;77.36;101193.57;1731959;82;21134;-48
2021/01/19 07:38:54;;;;;;;0.10;0.10;;;;;;;-15.00;77.50;101189.16;1731486;81;21150;-48
2021/01/19 07:41:29;;;;;;;0.10;0.10;;;;;;;-14.87;77.33;101189.22;1732850;81;21138;-48
2021/01/19 07:43:56;;;;;;;0.30;0.30;;;;;;;-14.75;77.14;101191.05;1732024;81;21160;-48
2021/01/19 07:46:27;;;;;;;0.93;0.93;;;;;;;-14.64;76.68;101196.08;1727311;82;21141;-48
2021/01/19 07:49:07;;;;;;;1.23;1.13;;;;;;;-14.59;76.57;101191.38;1731511;81;21107;-48
2021/01/19 07:51:44;;;;;;;0.10;0.10;;;;;;;-14.53;76.06;101192.30;1732139;82;21149;-48
2021/01/19 07:54:24;;;;;;;0.10;0.10;;;;;;;-14.50;75.61;101184.20;1728722;81;21221;-48
2021/01/19 07:56:51;;;;;;;0.10;0.10;;;;;;;-14.48;75.38;101194.60;1735307;81;21142;-48
2021/01/19 07:59:20;;;;;;;0.70;0.70;;;;;;;-14.44;75.14;101190.81;1726731;82;21174;-48
2021/01/19 08:01:57;;;;;;;0.87;0.63;;;;;;;-14.41;74.71;101190.16;1726673;83;21118;-48
2021/01/19 08:04:36;;;;;;;0.20;0.20;;;;;;;-14.39;74.60;101190.91;1726547;83;21204;-48
2021/01/19 08:07:19;;;;;;;0.10;0.10;;;;;;;-14.34;74.38;101192.77;1723761;83;21115;-48
2021/01/19 08:09:47;;;;;;;0.07;0.07;;;;;;;-14.27;74.16;101189.72;1725875;83;21648;-48
2021/01/19 08:12:15;;;;;;;0.50;0.50;;;;;;;-14.23;73.92;101195.15;1726392;83;21133;-48
2021/01/19 08:14:44;;;;;;;4.80;1.10;;;;;;;-14.21;73.74;101200.67;1726229;83;21121;-48
2021/01/19 08:17:12;;;;;;;0.10;0.10;;;;;;;-14.17;73.66;101194.73;1726704;82;21430;-48
2021/01/19 08:19:43;;;;;;;1.50;1.40;;;;;;;-14.10;73.50;101198.63;1726021;83;21142;-48
2021/01/19 08:22:11;;;;;;;0.70;0.70;;;;;;;-14.04;73.50;101194.75;1726092;83;21165;-48
2021/01/19 08:24:47;;;;;;;1.33;1.23;;;;;;;-13.98;73.10;101199.13;1708984;83;21114;-48
2021/01/19 08:27:14;;;;;;;0.27;0.27;;;;;;;-13.95;72.89;101196.29;1726530;82;21161;-48
2021/01/19 08:29:44;;;;;;;0.65;0.65;;;;;;;-13.92;72.94;101197.42;1654461;83;21149;-48
2021/01/19 08:32:11;;;;;;;0.20;0.20;;;;;;;-13.86;72.77;101196.98;1726699;83;20995;-48
2021/01/19 08:34:39;;;;;;;0.33;0.33;;;;;;;-13.78;72.50;101195.64;1724407;81;21609;-48
2021/01/19 08:37:06;;;;;;;0.37;0.37;;;;;;;-13.72;72.36;101187.31;1724500;83;21198;-48
2021/01/19 08:39:34;;;;;;;0.30;0.30;;;;;;;-13.70;72.15;101188.06;1726739;82;21398;-48
2021/01/19 08:42:04;;;;;;;0.20;0.20;;;;;;;-13.68;71.87;101191.43;1724236;83;21149;-48
2021/01/19 08:44:33;;;;;;;0.75;0.75;;;;;;;-13.63;71.77;101188.02;1726631;83;21175;-48
2021/01/19 08:47:00;;;;;;;0.47;0.47;;;;;;;-13.60;71.51;101182.53;1704220;82;21541;-48
2021/01/19 08:49:34;;;;;;;0.03;0.03;;;;;;;-13.53;71.49;101178.55;1699081;84;21148;-48
2021/01/19 08:52:02;;;;;;;0.30;0.30;;;;;;;-13.46;71.50;101179.80;1735043;82;21158;-48
2021/01/19 08:54:31;;;;;;;0.10;0.10;;;;;;;-13.37;70.87;101177.50;1765591;78;21165;-48
2021/01/19 08:56:59;;;;;;;1.73;0.97;;;;;;;-13.31;70.38;101177.89;1787201;80;21616;-48
2021/01/19 08:59:28;;;;;;;0.10;0.10;;;;;;;-13.28;69.70;101172.41;1761219;80;21172;-48
2021/01/19 09:01:55;;;;;;;0.35;0.35;;;;;;;-13.27;69.17;101176.73;1787361;80;21133;-48
2021/01/19 09:04:29;;;;;;;0.85;0.85;;;;;;;-13.27;68.96;101173.28;1718411;82;21574;-48
2021/01/19 09:07:10;;;;;;;7.58;0.65;;;;;;;-13.25;68.82;101173.95;1729793;82;21186;-49
2021/01/19 09:09:38;;;;;;;0.40;0.40;;;;;;;-13.27;68.53;101173.28;1725225;82;21014;-48
2021/01/19 09:12:17;;;;;;;0.27;0.27;;;;;;;-13.30;68.46;101176.09;1703793;82;21103;-48
2021/01/19 09:14:51;;;;;;;0.35;0.35;;;;;;;-13.30;68.37;101171.70;1730187;82;21167;-48
2021/01/19 09:17:28;;;;;;;0.33;0.33;;;;;;;-13.30;68.58;101173.02;1700499;84;21521;-48
2021/01/19 09:20:09;;;;;;;0.07;0.07;;;;;;;-13.31;68.47;101169.17;1720003;82;21261;-48
2021/01/19 09:22:37;;;;;;;2.45;1.62;;;;;;;-13.33;68.58;101168.43;1727729;82;21183;-48
2021/01/19 09:25:06;;;;;;;0.10;0.10;;;;;;;-13.34;68.60;101166.77;1726237;82;21447;-48
2021/01/19 09:27:35;;;;;;;0.53;0.53;;;;;;;-13.34;68.40;101164.13;1726319;82;21115;-48
2021/01/19 09:30:11;;;;;;;0.10;0.10;;;;;;;-13.35;68.55;101154.55;1729628;81;21107;-48
2021/01/19 09:32:43;;;;;;;1.20;1.10;;;;;;;-13.31;68.44;101158.65;1729498;82;21461;-48
2021/01/19 09:35:14;;;;;;;1.62;1.52;;;;;;;-13.27;68.43;101154.86;1729585;81;21546;-48
2021/01/19 09:37:42;;;;;;;0.53;0.53;;;;;;;-13.22;68.47;101154.03;1729566;82;21118;-48
2021/01/19 09:40:10;;;;;;;0.00;0.00;;;;;;;-13.14;68.41;101148.22;1720327;81;21107;-48
2021/01/19 09:42:39;;;;;;;0.10;0.10;;;;;;;-13.10;68.28;101140.01;1727899;82;21134;-48
2021/01/19 09:45:09;;;;;;;0.10;0.10;;;;;;;-13.10;68.01;101144.44;1705074;82;21133;-48
2021/01/19 09:47:37;;;;;;;0.55;0.55;;;;;;;-13.19;67.84;101151.17;1729072;82;21192;-48
2021/01/19 09:50:09;;;;;;;0.07;0.07;;;;;;;-13.25;67.95;101148.97;1728904;82;21683;-49
2021/01/19 09:52:40;;;;;;;0.28;0.28;;;;;;;-13.28;68.12;101146.59;1729162;82;21147;-48
2021/01/19 09:55:09;;;;;;;0.65;0.65;;;;;;;-13.24;68.10;101149.34;1678840;82;21185;-48
2021/01/19 09:57:37;;;;;;;0.30;0.30;;;;;;;-13.19;68.10;101141.14;1731793;82;21185;-49
2021/01/19 10:00:08;;;;;;;0.62;0.62;;;;;;;-13.17;67.81;101137.45;1731918;82;21142;-49
2021/01/19 10:02:39;;;;;;;0.10;0.10;;;;;;;-13.18;67.60;101139.70;1732071;82;21573;-48
2021/01/19 10:05:07;;;;;;;0.10;0.10;;;;;;;-13.19;67.72;101141.14;1730767;82;21118;-48
2021/01/19 10:07:35;;;;;;;1.55;1.45;;;;;;;-13.16;67.80;101136.48;1730442;82;21135;-48
2021/01/19 10:10:13;;;;;;;1.00;1.00;;;;;;;-13.05;67.80;101135.73;1730565;82;21110;-48
2021/01/19 10:12:42;;;;;;;0.10;0.10;;;;;;;-12.97;67.58;101129.92;1729760;82;21145;-49
2021/01/19 10:15:12;;;;;;;0.93;0.72;;;;;;;-12.90;67.37;101130.68;1723300;81;22520;-48
2021/01/19 10:17:40;;;;;;;0.20;0.20;;;;;;;-12.82;67.23;101123.54;1724821;80;21446;-48
2021/01/19 10:20:15;;;;;;;0.20;0.20;;;;;;;-12.75;67.21;101127.89;1730675;81;21126;-48
2021/01/19 10:22:45;;;;;;;0.10;0.10;;;;;;;-12.70;66.82;101132.34;1735643;81;21588;-48
2021/01/19 10:25:15;;;;;;;0.10;0.10;;;;;;;-12.67;66.55;101134.73;1733416;81;21470;-49
2021/01/19 10:27:44;;;;;;;0.35;0.35;;;;;;;-12.65;66.79;101125.77;1721298;82;21171;-48
2021/01/19 10:30:12;;;;;;;0.10;0.10;;;;;;;-12.56;66.40;101118.97;1744572;81;21519;-48
2021/01/19 10:32:48;;;;;;;0.75;0.75;;;;;;;-12.53;66.29;101119.22;1735943;81;21146;-48
2021/01/19 10:35:32;;;;;;;0.90;0.90;;;;;;;-12.51;65.67;101116.00;1738968;81;21435;-48
2021/01/19 10:38:06;;;;;;;0.10;0.10;;;;;;;-12.54;65.45;101124.14;1708718;83;21183;-48
2021/01/19 10:40:35;;;;;;;0.45;0.45;;;;;;;-12.53;65.69;101111.33;1725654;82;21118;-48
2021/01/19 10:43:10;;;;;;;0.10;0.10;;;;;;;-12.48;65.65;101111.84;1733370;81;21138;-48
2021/01/19 10:45:41;;;;;;;0.10;0.10;;;;;;;-12.44;65.72;101102.27;1732214;81;21619;-49
2021/01/19 10:48:18;;;;;;;0.33;0.33;;;;;;;-12.40;65.65;101103.72;1732372;81;21201;-48
2021/01/19 10:50:46;;;;;;;0.00;0.00;;;;;;;-12.33;65.56;101106.75;1732115;81;21408;-48
2021/01/19 10:53:13;;;;;;;0.10;0.10;;;;;;;-12.33;65.25;101102.80;1731969;82;21159;-48
2021/01/19 10:55:41;;;;;;;0.30;0.30;;;;;;;-12.35;65.13;101099.43;1727864;81;21118;-48
2021/01/19 10:58:08;;;;;;;0.53;0.53;;;;;;;-12.39;65.11;101098.80;1726434;83;21158;-48
2021/01/19 11:00:36;;;;;;;0.40;0.40;;;;;;;-12.39;65.30;101099.29;1726757;83;21122;-48
2021/01/19 11:03:03;;;;;;;0.57;0.57;;;;;;;-12.34;65.45;101094.52;1720605;83;21443;-48
2021/01/19 11:05:31;;;;;;;0.20;0.20;;;;;;;-12.27;65.16;101101.00;1724994;83;21142;-48
2021/01/19 11:07:59;;;;;;;0.53;0.53;;;;;;;-12.30;64.86;101092.50;1725356;83;21429;-48
2021/01/19 11:10:26;;;;;;;0.30;0.30;;;;;;;-12.36;64.82;101089.86;1726559;81;21142;-48
2021/01/19 11:12:55;;;;;;;0.10;0.10;;;;;;;-12.42;64.95;101086.36;1717441;81;21081;-48
2021/01/19 11:15:22;;;;;;;0.40;0.40;;;;;;;-12.48;64.83;101081.56;1726514;83;22005;-48
2021/01/19 11:17:52;;;;;;;0.13;0.13;;;;;;;-12.51;65.07;101081.77;1726632;83;21141;-48
2021/01/19 11:20:20;;;;;;;0.10;0.10;;;;;;;-12.54;65.17;101076.74;1699874;83;21155;-48
2021/01/19 11:22:48;;;;;;;0.10;0.10;;;;;;;-12.59;65.44;101071.33;1711961;81;21129;-48
2021/01/19 11:25:16;;;;;;;0.00;0.00;;;;;;;-12.57;65.29;101073.38;1726591;81;21149;-48
2021/01/19 11:27:43;;;;;;;0.10;0.10;;;;;;;-12.63;65.19;101071.22;1722085;83;21649;-48
2021/01/19 11:30:13;;;;;;;0.30;0.30;;;;;;;-12.66;65.37;101066.64;1709795;83;21164;-48
2021/01/19 11:32:40;;;;;;;0.33;0.33;;;;;;;-12.63;65.53;101075.66;1725827;83;21461;-48
2021/01/19 11:35:08;;;;;;;0.35;0.35;;;;;;;-12.54;65.10;101066.21;1726599;83;21154;-48
2021/01/19 11:37:36;;;;;;;0.10;0.10;;;;;;;-12.54;64.94;101066.21;1724351;83;21136;-48
2021/01/19 11:40:05;;;;;;;0.10;0.10;;;;;;;-12.54;65.06;101060.45;1729758;81;21111;-49